HRG weather

Hurghada International Airport
Hurghada, Red Sea Governorate, Egypt

Public forecast

Using degrees Celsius for public forecast. Weather courtesy of forecast.io.

Current aviation weather report (METAR) for Hurghada International Airport

Retrieved 2020/01/19 07:00 UTC (37 seconds ago):

HEGN 190700Z 27010KT CAVOK 17/00 Q1021 NOSIG

Aviation forecast (TAF) for Hurghada International Airport

Retrieved 2020/01/19 08:21 UTC (0 seconds ago):

TAF COR HEGN 190705Z 1908/2012 31010G20KT CAVOK